Time;durP1;ratioP1;P1;durP2;ratioP2;P2;SDS_P1;SDS_P2;PMS_P1;PMS_P2;Temp;Humidity;BMP_temperature;BMP_pressure;BME280_temperature;BME280_humidity;BME280_pressure;Samples;Min_cycle;Max_cycle;Signal;HPM_P1;HPM_P2
2023/12/12 00:02:06;;;;;;;1.10;0.53;;;12.00;42.10;;;;;;5054735;28;20180;-57
2023/12/12 00:04:32;;;;;;;0.80;0.27;;;11.90;42.40;;;;;;5054435;28;20201;-52
2023/12/12 00:06:58;;;;;;;0.80;0.30;;;11.80;42.80;;;;;;5054463;28;20180;-54
2023/12/12 00:09:24;;;;;;;0.80;0.20;;;11.90;42.90;;;;;;5054379;28;20182;-55
2023/12/12 00:11:50;;;;;;;0.88;0.38;;;12.00;43.00;;;;;;5054305;28;20245;-52
2023/12/12 00:14:15;;;;;;;0.80;0.20;;;12.10;42.90;;;;;;5054351;28;20257;-57
2023/12/12 00:16:41;;;;;;;1.00;0.70;;;12.10;42.90;;;;;;5053261;28;20228;-52
2023/12/12 00:19:07;;;;;;;1.20;0.57;;;12.00;43.40;;;;;;5054223;28;20614;-58
2023/12/12 00:21:33;;;;;;;1.83;0.80;;;12.00;43.30;;;;;;5054098;28;20431;-52
2023/12/12 00:23:58;;;;;;;1.30;0.80;;;12.10;43.90;;;;;;5052825;28;20224;-55
2023/12/12 00:26:24;;;;;;;1.00;0.40;;;12.20;43.00;;;;;;5053968;28;20189;-52
2023/12/12 00:28:50;;;;;;;1.10;0.70;;;12.20;42.80;;;;;;5053739;28;20197;-54
2023/12/12 00:31:16;;;;;;;1.40;0.90;;;12.10;42.90;;;;;;5053365;28;20215;-57
2023/12/12 00:33:41;;;;;;;1.83;0.97;;;12.20;42.80;;;;;;5052858;28;20395;-52
2023/12/12 00:36:07;;;;;;;0.90;0.30;;;12.20;42.60;;;;;;5053757;28;20203;-56
2023/12/12 00:38:33;;;;;;;0.90;0.40;;;12.10;42.60;;;;;;5053865;28;20201;-52
2023/12/12 00:40:59;;;;;;;0.90;0.47;;;12.10;43.10;;;;;;5052539;28;20414;-51
2023/12/12 00:43:25;;;;;;;7.93;0.60;;;12.10;43.00;;;;;;5054032;28;20558;-58
2023/12/12 00:45:51;;;;;;;4.53;1.10;;;12.20;42.80;;;;;;5052721;28;20404;-56
2023/12/12 00:48:17;;;;;;;0.87;0.37;;;12.30;42.70;;;;;;5052340;28;20243;-55
2023/12/12 00:50:43;;;;;;;1.58;1.02;;;12.30;42.70;;;;;;5053777;28;20816;-58
2023/12/12 00:53:09;;;;;;;0.90;0.40;;;12.30;42.70;;;;;;5052412;28;20232;-52
2023/12/12 00:55:35;;;;;;;1.00;0.50;;;12.40;42.40;;;;;;5053521;28;20658;-57
2023/12/12 00:58:01;;;;;;;12.63;1.47;;;12.50;42.30;;;;;;5052120;28;20231;-53
2023/12/12 01:00:27;;;;;;;0.90;0.40;;;12.60;42.00;;;;;;5053537;28;20165;-54
2023/12/12 01:02:52;;;;;;;1.00;0.40;;;12.60;41.80;;;;;;5053536;28;20520;-57
2023/12/12 01:05:18;;;;;;;1.33;0.83;;;12.40;42.00;;;;;;5053241;28;20638;-52
2023/12/12 01:07:44;;;;;;;1.30;0.53;;;12.40;42.00;;;;;;5053166;28;20193;-51
2023/12/12 01:10:10;;;;;;;0.97;0.40;;;12.50;41.90;;;;;;5053281;28;20224;-55
2023/12/12 01:12:36;;;;;;;1.40;0.47;;;12.40;41.90;;;;;;5053464;28;20196;-55
2023/12/12 01:15:02;;;;;;;1.27;0.60;;;12.40;41.80;;;;;;5053164;28;20653;-54
2023/12/12 01:17:29;;;;;;;1.00;0.40;;;12.40;41.80;;;;;;5053038;28;20189;-53
2023/12/12 01:19:55;;;;;;;1.15;0.60;;;12.40;41.70;;;;;;5053107;28;20170;-54
2023/12/12 01:22:20;;;;;;;0.90;0.37;;;12.40;41.80;;;;;;5053042;28;20685;-56
2023/12/12 01:24:46;;;;;;;1.20;0.93;;;12.30;41.90;;;;;;5052810;28;20706;-51
2023/12/12 01:27:12;;;;;;;0.90;0.43;;;12.30;41.90;;;;;;5052802;28;20169;-58
2023/12/12 01:29:38;;;;;;;0.80;0.30;;;12.30;42.00;;;;;;5053020;28;20169;-58
2023/12/12 01:32:04;;;;;;;1.20;0.90;;;12.30;42.00;;;;;;5053008;28;20403;-51
2023/12/12 01:34:30;;;;;;;0.90;0.57;;;12.20;41.90;;;;;;5052843;28;20435;-50
2023/12/12 01:36:56;;;;;;;1.53;0.90;;;12.20;41.90;;;;;;5052763;28;20658;-56
2023/12/12 01:39:22;;;;;;;2.23;0.70;;;11.00;41.40;;;;;;5052774;28;20686;-51
2023/12/12 01:41:50;;;;;;;1.90;0.60;;;12.20;41.90;;;;;;5052578;28;20441;-54
2023/12/12 01:44:17;;;;;;;1.00;0.32;;;12.20;41.90;;;;;;5051912;28;20949;-56
2023/12/12 01:46:47;;;;;;;1.15;1.00;;;12.10;42.00;;;;;;5052544;28;20877;-56
2023/12/12 01:49:16;;;;;;;1.00;0.63;;;12.10;42.10;;;;;;5052439;28;20185;-56
2023/12/12 01:51:44;;;;;;;1.13;1.00;;;12.10;42.10;;;;;;5052352;28;20185;-53
2023/12/12 01:54:10;;;;;;;2.20;1.08;;;12.00;42.00;;;;;;5052747;28;20203;-59
2023/12/12 01:56:36;;;;;;;1.10;0.67;;;12.00;42.00;;;;;;5052297;28;20204;-53
2023/12/12 01:59:03;;;;;;;0.80;0.30;;;12.00;42.00;;;;;;5052615;28;20522;-52
2023/12/12 02:01:29;;;;;;;1.00;0.60;;;12.00;41.90;;;;;;5052475;28;20399;-58
2023/12/12 02:03:57;;;;;;;0.90;0.40;;;12.00;42.00;;;;;;5052281;28;20201;-56
2023/12/12 02:06:23;;;;;;;0.90;0.45;;;12.00;42.10;;;;;;5052537;28;20179;-51
2023/12/12 02:08:50;;;;;;;1.20;0.60;;;12.00;42.30;;;;;;5052160;28;20185;-56
2023/12/12 02:11:17;;;;;;;2.08;0.50;;;12.00;42.40;;;;;;5052210;28;20200;-50
2023/12/12 02:13:43;;;;;;;0.90;0.32;;;12.00;42.30;;;;;;5052120;28;20663;-54
2023/12/12 02:16:09;;;;;;;1.08;0.52;;;12.10;42.40;;;;;;5052031;28;20664;-58
2023/12/12 02:18:35;;;;;;;1.00;0.65;;;12.10;42.40;;;;;;5052058;28;20193;-58
2023/12/12 02:21:01;;;;;;;1.17;0.82;;;12.10;42.50;;;;;;5051878;28;20670;-52
2023/12/12 02:23:30;;;;;;;1.93;1.43;;;12.10;42.30;;;;;;5052138;28;20189;-54
2023/12/12 02:25:57;;;;;;;1.00;0.50;;;12.10;42.20;;;;;;5052042;28;20418;-55
2023/12/12 02:28:23;;;;;;;0.90;0.50;;;12.10;42.20;;;;;;5051617;28;20200;-57
2023/12/12 02:30:49;;;;;;;2.70;1.07;;;12.10;42.20;;;;;;5052022;28;20184;-53
2023/12/12 02:33:15;;;;;;;1.00;0.50;;;12.10;42.30;;;;;;5051918;28;21008;-55
2023/12/12 02:35:41;;;;;;;1.63;0.53;;;12.10;42.30;;;;;;5051799;28;20245;-55
2023/12/12 02:38:06;;;;;;;0.90;0.30;;;12.00;42.60;;;;;;5051601;28;20210;-53
2023/12/12 02:40:32;;;;;;;1.10;0.80;;;11.90;42.90;;;;;;5051830;28;20531;-54
2023/12/12 02:42:58;;;;;;;1.47;1.00;;;11.90;42.60;;;;;;5051997;28;20173;-54
2023/12/12 02:45:24;;;;;;;1.33;0.87;;;11.90;42.70;;;;;;5051750;28;20692;-51
2023/12/12 02:47:50;;;;;;;1.00;0.50;;;11.90;42.70;;;;;;5051515;28;20286;-58
2023/12/12 02:50:16;;;;;;;1.83;0.70;;;11.90;42.60;;;;;;5051660;28;20434;-53
2023/12/12 02:52:42;;;;;;;1.00;0.65;;;12.00;42.60;;;;;;5051645;28;20574;-50
2023/12/12 02:55:08;;;;;;;2.60;0.40;;;12.00;42.60;;;;;;5054503;28;20175;-53
2023/12/12 02:57:33;;;;;;;0.90;0.53;;;12.00;42.50;;;;;;5055578;28;20431;-55
2023/12/12 02:59:59;;;;;;;1.53;1.07;;;12.00;42.60;;;;;;5055920;28;20404;-50
2023/12/12 03:02:25;;;;;;;0.90;0.43;;;12.00;42.60;;;;;;5055579;28;20399;-58
2023/12/12 03:04:51;;;;;;;1.43;0.80;;;12.00;42.60;;;;;;5055532;28;20270;-53
2023/12/12 03:07:16;;;;;;;0.90;0.30;;;12.00;42.60;;;;;;5055490;28;20196;-55
2023/12/12 03:09:42;;;;;;;0.80;0.30;;;12.00;42.50;;;;;;5055617;28;20169;-55
2023/12/12 03:12:08;;;;;;;0.97;0.47;;;12.10;42.60;;;;;;5055629;28;20197;-52
2023/12/12 03:14:34;;;;;;;0.87;0.30;;;12.10;42.60;;;;;;5055525;28;20197;-54
2023/12/12 03:17:00;;;;;;;0.90;0.32;;;12.00;42.60;;;;;;5055271;28;20258;-56
2023/12/12 03:19:27;;;;;;;0.90;0.30;;;12.00;42.60;;;;;;5055309;28;20200;-52
2023/12/12 03:21:53;;;;;;;0.80;0.30;;;12.00;42.60;;;;;;5055398;28;20173;-50
2023/12/12 03:24:19;;;;;;;4.23;1.63;;;12.00;42.50;;;;;;5055283;28;20546;-58
2023/12/12 03:26:44;;;;;;;0.90;0.40;;;12.00;42.70;;;;;;5055269;28;20567;-52
2023/12/12 03:29:10;;;;;;;0.90;0.43;;;12.00;42.70;;;;;;5055203;28;20928;-50
2023/12/12 03:31:36;;;;;;;0.80;0.30;;;12.00;42.80;;;;;;5055112;28;20175;-56
2023/12/12 03:34:02;;;;;;;0.90;0.50;;;12.00;42.70;;;;;;5055085;28;20177;-57
2023/12/12 03:36:28;;;;;;;1.13;0.60;;;12.00;42.80;;;;;;5055153;28;20180;-52
2023/12/12 03:38:53;;;;;;;1.10;0.53;;;12.00;42.90;;;;;;5055173;28;20213;-50
2023/12/12 03:41:19;;;;;;;1.40;0.93;;;12.00;43.00;;;;;;5055007;28;20403;-58
2023/12/12 03:43:45;;;;;;;1.60;0.50;;;12.00;43.10;;;;;;5054790;28;20193;-51
2023/12/12 03:46:12;;;;;;;0.90;0.50;;;12.00;43.00;;;;;;5054701;28;20181;-53
2023/12/12 03:48:38;;;;;;;0.90;0.40;;;12.00;43.30;;;;;;5054802;28;20195;-56
2023/12/12 03:51:07;;;;;;;0.80;0.30;;;12.00;43.10;;;;;;5054887;28;20173;-52
2023/12/12 03:53:33;;;;;;;0.98;0.50;;;12.10;43.10;;;;;;5054702;28;20415;-50
2023/12/12 03:55:58;;;;;;;1.40;0.70;;;12.10;43.10;;;;;;5054852;28;20203;-58
2023/12/12 03:58:24;;;;;;;1.00;0.60;;;12.10;43.10;;;;;;5054560;28;20213;-53
2023/12/12 04:00:50;;;;;;;2.73;0.67;;;12.20;43.00;;;;;;5054517;28;20183;-53
2023/12/12 04:03:15;;;;;;;1.43;0.77;;;12.10;43.00;;;;;;5054652;28;20547;-55
2023/12/12 04:05:42;;;;;;;0.90;0.47;;;12.10;43.20;;;;;;5053469;28;20478;-58
2023/12/12 04:08:08;;;;;;;1.00;0.50;;;12.10;43.10;;;;;;5054345;28;20185;-53
2023/12/12 04:10:34;;;;;;;0.90;0.40;;;12.20;43.20;;;;;;5054422;28;20173;-54
2023/12/12 04:13:00;;;;;;;1.00;0.50;;;12.20;43.60;;;;;;5054452;28;20214;-55
2023/12/12 04:15:26;;;;;;;1.10;0.67;;;12.10;43.50;;;;;;5054232;28;20178;-54
2023/12/12 04:17:52;;;;;;;1.17;0.83;;;12.10;43.50;;;;;;5054479;28;20189;-52
2023/12/12 04:20:18;;;;;;;0.80;0.30;;;12.20;43.50;;;;;;5054462;28;20408;-57
2023/12/12 04:22:44;;;;;;;0.90;0.40;;;12.20;43.40;;;;;;5054375;28;20677;-57
2023/12/12 04:25:13;;;;;;;0.90;0.40;;;12.20;43.40;;;;;;5054149;28;20455;-53
2023/12/12 04:27:39;;;;;;;2.38;0.75;;;12.20;43.60;;;;;;5053921;28;20181;-53
2023/12/12 04:30:05;;;;;;;0.90;0.40;;;12.20;43.40;;;;;;5053965;28;20166;-52
2023/12/12 04:32:32;;;;;;;0.80;0.30;;;12.30;43.50;;;;;;5054040;28;20195;-53
2023/12/12 04:34:59;;;;;;;0.90;0.50;;;12.30;43.40;;;;;;5054070;28;20647;-53
2023/12/12 04:37:26;;;;;;;0.90;0.30;;;12.30;43.50;;;;;;5053699;28;20674;-54
2023/12/12 04:39:51;;;;;;;1.15;0.75;;;12.30;43.40;;;;;;5053997;28;20678;-53
2023/12/12 04:42:17;;;;;;;1.63;0.73;;;12.30;43.50;;;;;;5053861;28;20176;-54
2023/12/12 04:44:43;;;;;;;0.90;0.40;;;12.30;43.50;;;;;;5053660;28;20193;-56
2023/12/12 04:47:09;;;;;;;0.80;0.30;;;12.30;43.50;;;;;;5053625;28;20196;-52
2023/12/12 04:49:36;;;;;;;0.90;0.50;;;12.30;43.50;;;;;;5053655;28;20173;-51
2023/12/12 04:52:02;;;;;;;0.80;0.40;;;12.30;44.20;;;;;;5054113;28;20440;-56
2023/12/12 04:54:28;;;;;;;0.88;0.35;;;12.30;43.50;;;;;;5053675;28;20178;-52
2023/12/12 04:56:54;;;;;;;1.60;0.87;;;12.30;43.50;;;;;;5053465;28;20169;-54
2023/12/12 04:59:19;;;;;;;1.53;0.60;;;12.30;43.80;;;;;;5053355;28;20188;-56
2023/12/12 05:01:45;;;;;;;0.90;0.40;;;12.30;43.70;;;;;;5053494;28;20166;-53
2023/12/12 05:04:11;;;;;;;1.00;0.67;;;12.20;43.80;;;;;;5053347;28;20201;-51
2023/12/12 05:06:37;;;;;;;1.20;0.50;;;12.20;43.90;;;;;;5053372;28;20199;-57
2023/12/12 05:09:03;;;;;;;1.40;0.80;;;12.20;43.90;;;;;;5053300;28;20469;-52
2023/12/12 05:11:29;;;;;;;1.20;0.60;;;12.30;44.10;;;;;;5053770;28;20878;-52
2023/12/12 05:13:56;;;;;;;2.20;0.90;;;12.30;44.10;;;;;;5053069;28;20658;-58
2023/12/12 05:16:23;;;;;;;1.38;0.90;;;12.20;43.90;;;;;;5053282;28;20181;-58
2023/12/12 05:18:49;;;;;;;1.13;0.65;;;12.20;44.20;;;;;;5053013;28;20765;-52
2023/12/12 05:21:14;;;;;;;1.00;0.60;;;12.20;44.30;;;;;;5053362;28;20252;-54
2023/12/12 05:23:41;;;;;;;2.23;0.87;;;12.20;44.20;;;;;;5053168;28;20746;-53
2023/12/12 05:26:07;;;;;;;0.90;0.30;;;12.20;44.20;;;;;;5053166;28;20201;-52
2023/12/12 05:28:33;;;;;;;2.00;1.27;;;12.20;44.20;;;;;;5052862;28;20225;-57
2023/12/12 05:30:59;;;;;;;1.27;0.97;;;12.30;44.30;;;;;;5053058;28;20498;-50
2023/12/12 05:33:24;;;;;;;1.10;0.63;;;12.30;44.10;;;;;;5052976;28;20499;-58
2023/12/12 05:35:50;;;;;;;1.67;0.90;;;12.30;44.00;;;;;;5052942;28;20400;-59
2023/12/12 05:38:16;;;;;;;1.10;0.60;;;12.40;44.00;;;;;;5052727;28;20690;-50
2023/12/12 05:40:42;;;;;;;0.90;0.40;;;12.40;44.00;;;;;;5052937;28;20173;-52
2023/12/12 05:43:09;;;;;;;0.90;0.47;;;12.40;43.90;;;;;;5052704;28;20754;-58
2023/12/12 05:45:35;;;;;;;4.05;1.23;;;12.40;44.00;;;;;;5052899;28;20813;-58
2023/12/12 05:48:03;;;;;;;1.70;1.10;;;12.40;43.90;;;;;;5052487;28;20697;-52
2023/12/12 05:50:29;;;;;;;3.83;0.73;;;12.40;43.90;;;;;;5052686;28;20532;-53
2023/12/12 05:52:55;;;;;;;1.17;0.98;;;12.40;43.90;;;;;;5052570;28;20169;-57
2023/12/12 05:55:21;;;;;;;1.00;0.47;;;12.40;43.90;;;;;;5052480;28;20200;-51
2023/12/12 05:57:48;;;;;;;2.13;1.20;;;12.40;44.00;;;;;;5052060;28;20759;-54
2023/12/12 06:00:14;;;;;;;2.70;0.82;;;12.30;44.10;;;;;;5052697;28;20595;-54
2023/12/12 06:02:40;;;;;;;1.83;1.40;;;12.30;44.00;;;;;;5052286;28;20185;-52
2023/12/12 06:05:07;;;;;;;1.03;0.70;;;12.40;43.90;;;;;;5052254;28;20283;-56
2023/12/12 06:07:37;;;;;;;1.48;0.93;;;12.40;43.90;;;;;;5052033;28;20424;-58
2023/12/12 06:10:04;;;;;;;2.05;1.17;;;12.40;43.80;;;;;;5052146;28;20173;-52
2023/12/12 06:12:31;;;;;;;1.80;0.75;;;12.40;43.70;;;;;;5052380;28;20238;-56
2023/12/12 06:14:56;;;;;;;1.00;0.52;;;12.30;43.70;;;;;;5052411;28;20184;-56
2023/12/12 06:17:23;;;;;;;2.27;0.93;;;12.30;43.50;;;;;;5051990;28;20193;-53
2023/12/12 06:19:49;;;;;;;1.25;0.68;;;12.30;43.60;;;;;;5052157;28;20252;-57
2023/12/12 06:22:15;;;;;;;1.02;0.32;;;12.30;43.50;;;;;;5052049;28;20173;-59
2023/12/12 06:24:41;;;;;;;1.10;0.80;;;12.20;43.50;;;;;;5051871;28;20235;-51
2023/12/12 06:27:07;;;;;;;0.93;0.40;;;12.20;43.50;;;;;;5051823;28;20400;-53
2023/12/12 06:29:33;;;;;;;3.43;0.70;;;12.10;43.80;;;;;;5051371;28;20199;-58
2023/12/12 06:31:58;;;;;;;1.23;0.50;;;12.10;44.00;;;;;;5052038;28;20403;-53
2023/12/12 06:34:24;;;;;;;0.90;0.50;;;12.00;43.80;;;;;;5051981;28;20917;-55
2023/12/12 06:36:51;;;;;;;2.50;1.43;;;12.00;44.00;;;;;;5052033;28;20427;-53
2023/12/12 06:39:16;;;;;;;12.98;1.40;;;12.00;44.00;;;;;;5051655;28;20455;-52
2023/12/12 06:41:42;;;;;;;1.20;0.80;;;12.00;44.30;;;;;;5051958;28;20176;-57
2023/12/12 06:44:08;;;;;;;1.27;0.70;;;12.00;44.30;;;;;;5051712;28;20620;-50
2023/12/12 06:46:36;;;;;;;2.30;2.00;;;12.00;44.20;;;;;;5051633;28;20260;-58
2023/12/12 06:49:03;;;;;;;1.00;0.52;;;12.10;44.30;;;;;;5051691;28;20759;-58
2023/12/12 06:51:29;;;;;;;1.00;0.50;;;12.00;44.20;;;;;;5051658;28;20181;-52
2023/12/12 06:53:57;;;;;;;1.63;0.80;;;12.00;44.20;;;;;;5051580;28;20184;-54
2023/12/12 06:56:23;;;;;;;1.60;1.35;;;12.00;44.10;;;;;;5051717;28;20415;-58
2023/12/12 06:58:49;;;;;;;5.93;0.90;;;12.00;44.10;;;;;;5051723;28;20560;-57
2023/12/12 07:01:15;;;;;;;1.87;1.43;;;12.00;44.30;;;;;;5051634;28;20414;-54
2023/12/12 07:03:40;;;;;;;0.90;0.40;;;12.00;44.10;;;;;;5051575;28;20197;-58
2023/12/12 07:06:06;;;;;;;2.33;0.97;;;12.00;44.20;;;;;;5051500;28;20169;-53
2023/12/12 07:08:32;;;;;;;1.70;1.42;;;12.00;44.20;;;;;;5051395;28;20195;-51
2023/12/12 07:10:58;;;;;;;2.60;1.20;;;12.10;44.30;;;;;;5051514;28;20181;-57
2023/12/12 07:13:24;;;;;;;1.93;0.80;;;12.10;44.30;;;;;;5051686;28;20413;-57
2023/12/12 07:15:50;;;;;;;1.48;1.00;;;12.10;44.30;;;;;;5051503;28;20486;-51
2023/12/12 07:18:16;;;;;;;1.40;0.70;;;12.10;44.30;;;;;;5051342;28;20276;-57
2023/12/12 07:20:41;;;;;;;0.90;0.33;;;12.10;44.30;;;;;;5051462;28;20227;-52
2023/12/12 07:23:08;;;;;;;1.37;1.13;;;12.10;44.30;;;;;;5051428;28;20166;-59
2023/12/12 07:25:36;;;;;;;0.98;0.63;;;12.10;44.30;;;;;;5051405;28;20197;-59
2023/12/12 07:28:02;;;;;;;1.20;0.95;;;12.10;44.40;;;;;;5051226;28;20227;-51
2023/12/12 07:30:28;;;;;;;1.23;0.63;;;12.10;44.40;;;;;;5051400;28;20170;-56
2023/12/12 07:32:57;;;;;;;1.23;0.93;;;12.10;44.50;;;;;;5051425;28;20414;-58
2023/12/12 07:35:24;;;;;;;2.45;1.00;;;12.10;45.10;;;;;;5051195;28;20403;-52
2023/12/12 07:37:50;;;;;;;1.95;0.40;;;12.00;44.90;;;;;;5051079;28;20954;-52
2023/12/12 07:40:16;;;;;;;1.10;0.50;;;12.00;45.00;;;;;;5052382;28;20260;-57
2023/12/12 07:42:42;;;;;;;1.10;0.73;;;12.00;45.10;;;;;;5055043;28;20173;-53
2023/12/12 07:45:09;;;;;;;1.57;1.07;;;12.00;45.20;;;;;;5054974;28;20605;-52
2023/12/12 07:47:35;;;;;;;2.67;0.73;;;12.00;45.10;;;;;;5054830;28;20197;-58
2023/12/12 07:50:04;;;;;;;1.20;0.60;;;12.10;45.40;;;;;;5054912;28;20161;-59
2023/12/12 07:52:33;;;;;;;1.10;0.75;;;12.10;45.20;;;;;;5053833;28;20550;-51
2023/12/12 07:54:59;;;;;;;1.20;0.65;;;12.10;45.20;;;;;;5054734;28;20214;-58
2023/12/12 07:57:25;;;;;;;1.00;0.63;;;12.10;45.50;;;;;;5054547;28;20686;-57
2023/12/12 07:59:51;;;;;;;12.97;2.30;;;12.10;45.30;;;;;;5054751;28;20177;-53
2023/12/12 08:02:17;;;;;;;1.50;0.87;;;12.20;45.10;;;;;;5055054;28;20172;-53
2023/12/12 08:04:44;;;;;;;1.15;0.82;;;12.20;45.20;;;;;;5054396;28;20217;-59
2023/12/12 08:07:09;;;;;;;10.23;1.20;;;12.30;45.10;;;;;;5054403;28;20265;-51
2023/12/12 08:09:36;;;;;;;1.20;1.07;;;12.30;45.00;;;;;;5054429;28;20595;-53
2023/12/12 08:12:02;;;;;;;1.00;0.60;;;12.40;44.80;;;;;;5054543;28;20181;-59
2023/12/12 08:14:28;;;;;;;1.75;1.35;;;12.50;44.70;;;;;;5054499;28;20256;-53
2023/12/12 08:16:54;;;;;;;1.60;1.50;;;12.50;44.50;;;;;;5054287;28;20277;-58
2023/12/12 08:19:20;;;;;;;2.30;0.90;;;12.60;44.50;;;;;;5054202;28;20193;-52
2023/12/12 08:21:46;;;;;;;1.85;0.82;;;12.50;44.50;;;;;;5054335;28;20169;-55
2023/12/12 08:24:12;;;;;;;1.10;0.83;;;12.60;44.50;;;;;;5054085;28;20207;-56
2023/12/12 08:26:42;;;;;;;2.05;1.35;;;12.60;44.50;;;;;;5052742;28;20928;-52
2023/12/12 08:29:09;;;;;;;1.38;0.82;;;12.60;44.40;;;;;;5054152;28;20197;-53
2023/12/12 08:31:34;;;;;;;0.90;0.60;;;12.60;44.40;;;;;;5052756;28;20655;-56
2023/12/12 08:34:01;;;;;;;5.17;2.17;;;12.60;44.40;;;;;;5054041;28;20181;-52
2023/12/12 08:36:27;;;;;;;2.15;0.73;;;12.60;44.30;;;;;;5054008;28;20182;-54
2023/12/12 08:38:53;;;;;;;3.05;1.20;;;12.60;44.40;;;;;;5053826;28;20255;-57
2023/12/12 08:41:20;;;;;;;1.55;1.38;;;12.60;44.50;;;;;;5053808;28;20189;-57
2023/12/12 08:43:46;;;;;;;1.15;0.80;;;12.70;44.50;;;;;;5053921;28;20205;-50
2023/12/12 08:46:12;;;;;;;1.10;0.97;;;12.70;45.10;;;;;;5053694;28;20192;-54
2023/12/12 08:48:38;;;;;;;1.37;0.90;;;12.70;44.50;;;;;;5054092;28;20196;-52
2023/12/12 08:51:04;;;;;;;7.32;1.17;;;12.70;44.50;;;;;;5053886;28;20165;-54
2023/12/12 08:53:30;;;;;;;2.60;1.47;;;12.70;44.50;;;;;;5053106;28;20177;-58
2023/12/12 08:55:55;;;;;;;1.10;0.70;;;12.70;44.50;;;;;;5053645;28;20427;-52
2023/12/12 08:58:23;;;;;;;2.20;1.40;;;12.80;44.50;;;;;;5053510;28;20765;-54
2023/12/12 09:00:51;;;;;;;1.85;1.02;;;12.80;44.40;;;;;;5053587;28;20173;-55
2023/12/12 09:03:17;;;;;;;1.77;1.67;;;12.80;44.30;;;;;;5053587;28;20198;-52
2023/12/12 09:05:44;;;;;;;1.53;0.90;;;12.80;44.20;;;;;;5053463;28;20682;-54
2023/12/12 09:08:10;;;;;;;1.50;0.65;;;12.90;44.30;;;;;;5053219;28;20189;-56
2023/12/12 09:10:36;;;;;;;1.75;1.23;;;12.90;44.10;;;;;;5053385;28;20174;-52
2023/12/12 09:13:03;;;;;;;2.13;1.20;;;12.90;44.10;;;;;;5053401;28;20173;-53
2023/12/12 09:15:30;;;;;;;0.90;0.38;;;12.90;43.90;;;;;;5053736;28;20307;-55
2023/12/12 09:17:56;;;;;;;1.75;1.23;;;12.90;44.10;;;;;;5053004;28;20671;-57
2023/12/12 09:20:21;;;;;;;2.00;1.80;;;12.90;44.20;;;;;;5053199;28;20398;-49
2023/12/12 09:22:47;;;;;;;1.67;0.97;;;12.90;44.00;;;;;;5053089;28;20290;-57
2023/12/12 09:25:13;;;;;;;1.00;0.53;;;12.90;44.00;;;;;;5053052;28;20802;-58
2023/12/12 09:27:38;;;;;;;1.83;0.90;;;12.90;44.10;;;;;;5052863;28;20193;-51
2023/12/12 09:30:05;;;;;;;1.47;0.47;;;13.00;44.10;;;;;;5053036;28;20166;-59
2023/12/12 09:32:31;;;;;;;1.63;0.60;;;13.00;44.10;;;;;;5052748;28;20272;-53
2023/12/12 09:34:57;;;;;;;1.50;0.65;;;13.00;44.20;;;;;;5052882;28;20532;-54
2023/12/12 09:37:23;;;;;;;2.63;2.43;;;13.00;44.20;;;;;;5052693;28;20212;-57
2023/12/12 09:39:49;;;;;;;1.00;0.68;;;13.10;44.40;;;;;;5052997;28;20177;-53
2023/12/12 09:42:17;;;;;;;1.08;0.50;;;13.00;44.50;;;;;;5052726;28;20531;-51
2023/12/12 09:44:45;;;;;;;1.10;0.60;;;13.10;44.70;;;;;;5052637;28;20197;-58
2023/12/12 09:47:11;;;;;;;1.00;0.73;;;13.00;44.70;;;;;;5052571;28;20192;-51
2023/12/12 09:49:37;;;;;;;1.20;1.10;;;13.10;44.80;;;;;;5052868;28;20201;-57
2023/12/12 09:52:03;;;;;;;1.27;0.80;;;13.10;45.30;;;;;;5060535;28;20634;-59
2023/12/12 09:54:30;;;;;;;1.38;0.98;;;13.00;45.20;;;;;;5052436;28;20177;-52
2023/12/12 09:56:56;;;;;;;2.97;0.90;;;13.00;45.00;;;;;;5052430;28;20251;-52
2023/12/12 09:59:22;;;;;;;1.57;1.17;;;12.90;45.30;;;;;;5052356;28;20197;-56
2023/12/12 10:01:49;;;;;;;1.03;0.60;;;12.90;45.40;;;;;;5052594;28;20662;-51
2023/12/12 10:04:18;;;;;;;1.30;0.73;;;12.90;45.40;;;;;;5051409;28;20444;-54
2023/12/12 10:06:52;;;;;;;1.10;0.50;;;12.80;45.50;;;;;;5052181;28;20161;-57
2023/12/12 10:09:21;;;;;;;1.80;0.90;;;12.70;45.50;;;;;;5052339;28;20543;-54
2023/12/12 10:11:46;;;;;;;1.80;0.80;;;12.70;45.60;;;;;;5052157;28;20177;-50
2023/12/12 10:14:12;;;;;;;1.10;0.80;;;12.80;45.70;;;;;;5052370;28;20177;-53
2023/12/12 10:16:38;;;;;;;3.20;1.83;;;12.90;45.70;;;;;;5052094;28;20177;-57
2023/12/12 10:19:04;;;;;;;3.33;1.63;;;13.00;45.70;;;;;;5052110;28;20197;-52
2023/12/12 10:21:30;;;;;;;1.07;0.70;;;13.00;45.70;;;;;;5052176;28;20174;-52
2023/12/12 10:23:56;;;;;;;1.70;1.60;;;13.10;45.60;;;;;;5052118;28;20197;-58
2023/12/12 10:26:32;;;;;;;11.25;1.35;;;13.10;45.40;;;;;;5051734;28;20400;-58
2023/12/12 10:29:02;;;;;;;3.83;1.05;;;13.20;45.40;;;;;;5052184;28;20658;-54
2023/12/12 10:31:27;;;;;;;1.10;0.50;;;13.30;45.60;;;;;;5051986;28;20176;-57
2023/12/12 10:33:55;;;;;;;1.00;0.60;;;13.40;45.90;;;;;;5052068;28;20211;-52
2023/12/12 10:36:21;;;;;;;1.40;0.90;;;13.50;45.90;;;;;;5051785;28;20493;-57
2023/12/12 10:38:47;;;;;;;6.15;2.88;;;13.80;46.10;;;;;;5051205;28;20213;-59
2023/12/12 10:41:18;;;;;;;1.87;1.00;;;14.20;44.70;;;;;;5060054;28;20172;-51
2023/12/12 10:43:45;;;;;;;1.55;0.85;;;14.40;46.00;;;;;;5051584;28;20173;-57
2023/12/12 10:46:13;;;;;;;1.23;0.68;;;14.30;42.00;;;;;;5051579;28;20177;-58
2023/12/12 10:48:52;;;;;;;2.35;0.98;;;14.00;42.10;;;;;;5051627;28;20199;-53
2023/12/12 10:51:18;;;;;;;1.30;0.70;;;14.00;43.50;;;;;;5051568;28;20199;-55
2023/12/12 10:53:51;;;;;;;1.55;0.93;;;14.40;44.10;;;;;;5051761;28;20500;-53
2023/12/12 10:56:19;;;;;;;0.90;0.40;;;14.90;44.20;;;;;;5051841;28;20256;-53
2023/12/12 10:58:46;;;;;;;1.20;0.85;;;15.50;43.90;;;;;;5051720;28;20535;-54
2023/12/12 11:01:14;;;;;;;1.10;0.77;;;16.00;42.60;;;;;;5051783;28;20181;-58
2023/12/12 11:03:40;;;;;;;1.50;1.23;;;16.30;41.60;;;;;;5051602;28;20205;-56
2023/12/12 11:06:10;;;;;;;4.40;1.33;;;16.70;40.30;;;;;;5051444;28;20176;-51
2023/12/12 11:08:36;;;;;;;1.40;1.10;;;17.10;37.90;;;;;;5051544;28;20193;-58
2023/12/12 11:11:10;;;;;;;1.42;0.80;;;17.00;34.40;;;;;;5051660;28;20181;-59
2023/12/12 11:13:39;;;;;;;7.55;1.55;;;16.90;36.80;;;;;;5051619;28;20172;-51
2023/12/12 11:16:07;;;;;;;1.42;1.27;;;16.80;36.50;;;;;;5054156;28;20177;-52
2023/12/12 11:18:45;;;;;;;1.05;0.63;;;16.80;34.90;;;;;;5055509;28;20201;-58
2023/12/12 11:21:43;;;;;;;1.23;0.90;;;16.60;36.50;;;;;;5055678;28;20184;-59
2023/12/12 11:24:09;;;;;;;3.60;1.90;;;16.60;37.10;;;;;;5055468;28;20288;-53
2023/12/12 11:26:38;;;;;;;1.25;1.00;;;16.70;35.80;;;;;;5055222;28;20253;-54
2023/12/12 11:29:07;;;;;;;1.00;0.60;;;16.80;35.80;;;;;;5055317;28;20674;-59
2023/12/12 11:31:36;;;;;;;1.40;0.73;;;16.90;35.00;;;;;;5055232;28;20273;-55
2023/12/12 11:34:05;;;;;;;3.38;1.40;;;17.20;34.10;;;;;;5055182;28;20264;-59
2023/12/12 11:36:52;;;;;;;1.35;0.80;;;17.20;33.40;;;;;;5055101;28;20227;-52
2023/12/12 11:39:37;;;;;;;1.30;0.63;;;17.60;34.80;;;;;;5054935;28;20205;-57
2023/12/12 11:42:05;;;;;;;1.60;0.77;;;17.80;32.00;;;;;;5055006;28;20187;-51
2023/12/12 11:44:42;;;;;;;1.00;0.50;;;17.90;33.00;;;;;;5055115;28;20201;-54
2023/12/12 11:47:17;;;;;;;1.00;0.47;;;17.80;32.20;;;;;;5054738;28;20260;-53
2023/12/12 11:49:47;;;;;;;1.20;1.00;;;17.60;31.30;;;;;;5054858;28;20203;-58
2023/12/12 11:52:39;;;;;;;1.35;1.25;;;17.30;32.20;;;;;;5055222;28;20256;-52
2023/12/12 11:55:11;;;;;;;1.10;0.68;;;17.30;33.50;;;;;;5049990;28;20213;-55
2023/12/12 11:57:37;;;;;;;2.25;0.82;;;17.40;32.90;;;;;;5053701;28;20589;-58
2023/12/12 12:00:04;;;;;;;1.20;0.90;;;17.70;34.20;;;;;;5054680;28;20179;-55
2023/12/12 12:02:30;;;;;;;1.42;0.82;;;17.90;32.60;;;;;;5054909;28;20181;-53
2023/12/12 12:04:57;;;;;;;2.17;0.85;;;17.90;31.30;;;;;;5054584;28;20205;-54
2023/12/12 12:07:23;;;;;;;5.43;1.52;;;18.00;31.30;;;;;;5054613;28;20172;-51
2023/12/12 12:09:50;;;;;;;2.00;1.23;;;18.10;31.70;;;;;;5054755;28;20219;-52
2023/12/12 12:12:17;;;;;;;1.58;1.40;;;18.20;31.80;;;;;;5054589;28;20196;-58
2023/12/12 12:14:43;;;;;;;2.08;1.85;;;18.40;28.90;;;;;;5054401;28;20189;-52
2023/12/12 12:17:09;;;;;;;1.10;0.80;;;18.50;30.60;;;;;;5054443;28;20180;-50
2023/12/12 12:19:37;;;;;;;2.83;1.08;;;18.80;30.30;;;;;;5054305;28;20890;-59
2023/12/12 12:22:10;;;;;;;1.10;0.65;;;19.30;28.30;;;;;;5054422;28;20186;-54
2023/12/12 12:24:43;;;;;;;1.33;1.05;;;19.80;28.50;;;;;;5054340;28;20201;-54
2023/12/12 12:27:09;;;;;;;2.53;0.90;;;19.80;28.40;;;;;;5052909;28;20177;-59
2023/12/12 12:29:35;;;;;;;5.53;1.38;;;19.60;27.80;;;;;;5054422;28;20200;-49
2023/12/12 12:32:11;;;;;;;2.30;0.90;;;20.30;27.40;;;;;;5054302;28;20300;-61
2023/12/12 12:34:37;;;;;;;1.30;0.70;;;19.80;25.30;;;;;;5054155;28;20411;-53
2023/12/12 12:37:03;;;;;;;4.32;0.73;;;19.10;26.70;;;;;;5053876;28;20265;-52
2023/12/12 12:39:29;;;;;;;1.40;1.00;;;18.40;26.80;;;;;;5054045;28;20256;-58
2023/12/12 12:41:55;;;;;;;1.73;1.20;;;17.90;28.40;;;;;;5053947;28;20174;-53
2023/12/12 12:44:22;;;;;;;1.38;0.90;;;17.40;28.80;;;;;;5054084;28;20228;-55